createdAt,value
2022-12-09T00:08:02.315Z,97080
2022-12-09T00:20:02.130Z,97080
2022-12-09T00:32:02.178Z,97080
2022-12-09T00:44:02.302Z,97070
2022-12-09T00:56:02.269Z,97070
2022-12-09T01:08:02.242Z,97070
2022-12-09T01:20:02.276Z,97060
2022-12-09T01:32:02.227Z,97050
2022-12-09T01:44:02.267Z,97050
2022-12-09T01:56:02.120Z,97050
2022-12-09T02:08:02.163Z,97040
2022-12-09T02:20:02.152Z,97050
2022-12-09T02:32:02.235Z,97040
2022-12-09T02:44:02.093Z,97030
2022-12-09T02:56:02.442Z,97020
2022-12-09T03:08:02.175Z,97010
2022-12-09T03:20:02.185Z,97000
2022-12-09T03:32:02.324Z,96970
2022-12-09T03:44:02.087Z,96970
2022-12-09T03:56:02.395Z,96960
2022-12-09T04:08:02.293Z,96960
2022-12-09T04:20:02.452Z,96970
2022-12-09T04:32:02.191Z,96950
2022-12-09T04:44:02.470Z,96960
2022-12-09T04:56:02.143Z,96950
2022-12-09T05:08:02.465Z,96940
2022-12-09T05:20:02.184Z,96940
2022-12-09T05:32:02.354Z,96930
2022-12-09T05:44:02.249Z,96930
2022-12-09T05:56:02.533Z,96920
2022-12-09T06:08:06.613Z,96910
2022-12-09T06:20:02.464Z,96900
2022-12-09T06:32:02.536Z,96900
2022-12-09T06:44:02.161Z,96910
2022-12-09T06:56:07.901Z,96900
2022-12-09T07:08:02.745Z,96920
2022-12-09T07:20:06.697Z,96910
2022-12-09T07:32:02.396Z,96910
2022-12-09T07:44:02.552Z,96920
2022-12-09T07:56:02.434Z,96920
2022-12-09T08:08:02.472Z,96910
2022-12-09T08:20:02.279Z,96920
2022-12-09T08:32:02.278Z,96920
2022-12-09T08:44:02.283Z,96930
2022-12-09T08:56:02.159Z,96910
2022-12-09T09:08:02.540Z,96920
2022-12-09T09:20:02.441Z,96930
2022-12-09T09:32:02.692Z,96940
2022-12-09T09:44:02.238Z,96940
2022-12-09T09:56:02.274Z,96940
2022-12-09T10:08:02.518Z,96930
2022-12-09T10:20:02.208Z,96930
2022-12-09T10:32:02.654Z,96910
2022-12-09T10:44:02.549Z,96860
2022-12-09T10:56:02.609Z,96890
2022-12-09T11:08:02.848Z,96900
2022-12-09T11:20:02.787Z,96910
2022-12-09T11:32:02.339Z,96910
2022-12-09T11:44:02.087Z,96950
2022-12-09T11:56:02.173Z,96890
2022-12-09T12:08:02.293Z,96900
2022-12-09T12:20:02.090Z,96900
2022-12-09T12:32:02.138Z,96910
2022-12-09T12:44:02.082Z,96960
2022-12-09T12:56:02.084Z,96940
2022-12-09T13:08:02.950Z,96940
2022-12-09T13:20:02.089Z,96930
2022-12-09T13:32:02.208Z,96920
2022-12-09T13:44:02.084Z,96910
2022-12-09T13:56:02.164Z,96910
2022-12-09T14:08:02.160Z,96910
2022-12-09T14:20:02.094Z,96910
2022-12-09T14:32:02.086Z,96910
2022-12-09T14:44:02.142Z,96920
2022-12-09T14:56:02.149Z,96920
2022-12-09T15:08:02.202Z,96910
2022-12-09T15:20:02.720Z,96920
2022-12-09T15:32:02.198Z,96910
2022-12-09T15:44:02.083Z,96900
2022-12-09T15:56:02.196Z,96900
2022-12-09T16:08:02.118Z,96900
2022-12-09T16:20:02.162Z,96900
2022-12-09T16:32:02.224Z,96920
2022-12-09T16:44:02.098Z,96920
2022-12-09T16:56:02.267Z,96910
2022-12-09T17:08:02.176Z,96930
2022-12-09T17:20:02.097Z,96920
2022-12-09T17:32:02.303Z,96920
2022-12-09T17:44:02.090Z,96930
2022-12-09T17:56:02.089Z,96940
2022-12-09T18:08:02.253Z,96950
2022-12-09T18:20:02.082Z,96950
2022-12-09T18:32:02.192Z,96960
2022-12-09T18:44:02.085Z,96960
2022-12-09T18:56:02.186Z,96960
2022-12-09T19:08:02.134Z,96960
2022-12-09T19:20:02.088Z,96970
2022-12-09T19:32:02.196Z,96970
2022-12-09T19:44:02.193Z,96970
2022-12-09T19:56:02.080Z,96970
2022-12-09T20:08:02.137Z,96970
2022-12-09T20:20:02.081Z,96980
2022-12-09T20:32:02.154Z,96980
2022-12-09T20:44:02.087Z,96990
2022-12-09T20:56:02.092Z,96980
2022-12-09T21:08:02.251Z,97000
2022-12-09T21:20:02.085Z,96980
2022-12-09T21:32:02.429Z,96990
2022-12-09T21:44:02.199Z,96990
2022-12-09T21:56:02.185Z,97000
2022-12-09T22:08:02.162Z,97010
2022-12-09T22:20:33.684Z,97000
2022-12-09T22:32:02.209Z,97030
2022-12-09T22:44:02.148Z,97030
2022-12-09T22:56:02.175Z,97030
2022-12-09T23:08:02.116Z,97050
2022-12-09T23:20:02.079Z,97040
2022-12-09T23:32:02.087Z,97030
2022-12-09T23:44:02.078Z,97030
2022-12-09T23:56:02.176Z,97040
